-1°C Temp
-2°C Dewpoint
% Humidity
Temperature
5 KM/H
3 MPH
3 KTS
240°
West South
West

Wind Speed
Partly Cloudy
Conditions
Pressure 1023.92 (hPa) - 30.24 (in)
Visibility 5.0 (mi) - 8.0 (km)

Current Conditions
EPKT
Location 6km (3.2mi)
Metar :EPKT 301630Z 24003KT 8000 FEW008 SCT010 M01/M02 Q1024
Mon 30th November 18:30 pm

Airport
  Metar Aviation API Data Provided by https://www.checkwx.com/ CSS/SVG/PHP scripts by weather34.com © 2015-2020